sensor_id;sensor_type;location;lat;lon;timestamp;P1;durP1;ratioP1;P2;durP2;ratioP2
71790;SDS011;59638;52.126;5.434;2022-11-15T00:02:06;22.63;;;9.52;;
71790;SDS011;59638;52.126;5.434;2022-11-15T00:04:33;29.70;;;10.68;;
71790;SDS011;59638;52.126;5.434;2022-11-15T00:06:59;18.42;;;9.32;;
71790;SDS011;59638;52.126;5.434;2022-11-15T00:09:26;28.47;;;11.20;;
71790;SDS011;59638;52.126;5.434;2022-11-15T00:11:52;30.50;;;11.13;;
71790;SDS011;59638;52.126;5.434;2022-11-15T00:14:18;24.98;;;11.25;;
71790;SDS011;59638;52.126;5.434;2022-11-15T00:16:45;31.40;;;10.73;;
71790;SDS011;59638;52.126;5.434;2022-11-15T00:19:11;27.48;;;11.02;;
71790;SDS011;59638;52.126;5.434;2022-11-15T00:21:38;31.33;;;12.57;;
71790;SDS011;59638;52.126;5.434;2022-11-15T00:24:04;36.33;;;11.30;;
71790;SDS011;59638;52.126;5.434;2022-11-15T00:26:31;34.03;;;13.32;;
71790;SDS011;59638;52.126;5.434;2022-11-15T00:28:57;33.15;;;12.38;;
71790;SDS011;59638;52.126;5.434;2022-11-15T00:31:23;38.40;;;12.60;;
71790;SDS011;59638;52.126;5.434;2022-11-15T00:33:50;42.10;;;13.30;;
71790;SDS011;59638;52.126;5.434;2022-11-15T00:36:16;49.88;;;13.40;;
71790;SDS011;59638;52.126;5.434;2022-11-15T00:38:42;41.50;;;12.98;;
71790;SDS011;59638;52.126;5.434;2022-11-15T00:41:09;35.33;;;12.75;;
71790;SDS011;59638;52.126;5.434;2022-11-15T00:43:35;50.55;;;13.73;;
71790;SDS011;59638;52.126;5.434;2022-11-15T00:46:02;33.27;;;12.37;;
71790;SDS011;59638;52.126;5.434;2022-11-15T00:48:28;45.55;;;13.18;;
71790;SDS011;59638;52.126;5.434;2022-11-15T00:50:55;40.05;;;13.65;;
71790;SDS011;59638;52.126;5.434;2022-11-15T00:53:21;45.10;;;13.13;;
71790;SDS011;59638;52.126;5.434;2022-11-15T00:55:47;39.38;;;12.77;;
71790;SDS011;59638;52.126;5.434;2022-11-15T00:58:14;37.87;;;13.80;;
71790;SDS011;59638;52.126;5.434;2022-11-15T01:00:40;44.60;;;14.00;;
71790;SDS011;59638;52.126;5.434;2022-11-15T01:03:07;34.92;;;12.70;;
71790;SDS011;59638;52.126;5.434;2022-11-15T01:05:33;47.10;;;13.15;;
71790;SDS011;59638;52.126;5.434;2022-11-15T01:07:59;43.70;;;13.15;;
71790;SDS011;59638;52.126;5.434;2022-11-15T01:10:29;47.40;;;13.17;;
71790;SDS011;59638;52.126;5.434;2022-11-15T01:12:55;48.72;;;13.63;;
71790;SDS011;59638;52.126;5.434;2022-11-15T01:15:21;46.13;;;12.75;;
71790;SDS011;59638;52.126;5.434;2022-11-15T01:17:48;38.90;;;12.18;;
71790;SDS011;59638;52.126;5.434;2022-11-15T01:20:14;35.13;;;12.70;;
71790;SDS011;59638;52.126;5.434;2022-11-15T01:22:40;36.10;;;12.37;;
71790;SDS011;59638;52.126;5.434;2022-11-15T01:25:07;39.35;;;13.27;;
71790;SDS011;59638;52.126;5.434;2022-11-15T01:27:33;40.13;;;12.00;;
71790;SDS011;59638;52.126;5.434;2022-11-15T01:29:59;35.08;;;13.05;;
71790;SDS011;59638;52.126;5.434;2022-11-15T01:32:26;41.58;;;12.55;;
71790;SDS011;59638;52.126;5.434;2022-11-15T01:34:52;38.60;;;13.13;;
71790;SDS011;59638;52.126;5.434;2022-11-15T01:37:18;36.97;;;12.93;;
71790;SDS011;59638;52.126;5.434;2022-11-15T01:39:45;37.33;;;12.50;;
71790;SDS011;59638;52.126;5.434;2022-11-15T01:42:14;45.53;;;12.50;;
71790;SDS011;59638;52.126;5.434;2022-11-15T01:44:41;35.03;;;11.82;;
71790;SDS011;59638;52.126;5.434;2022-11-15T01:47:15;30.27;;;11.82;;
71790;SDS011;59638;52.126;5.434;2022-11-15T01:49:48;30.80;;;12.70;;
71790;SDS011;59638;52.126;5.434;2022-11-15T01:52:19;41.00;;;13.00;;
71790;SDS011;59638;52.126;5.434;2022-11-15T01:54:48;38.30;;;12.50;;
71790;SDS011;59638;52.126;5.434;2022-11-15T01:57:19;40.15;;;11.57;;
71790;SDS011;59638;52.126;5.434;2022-11-15T01:59:46;36.70;;;12.50;;
71790;SDS011;59638;52.126;5.434;2022-11-15T02:02:13;43.08;;;13.40;;
71790;SDS011;59638;52.126;5.434;2022-11-15T02:04:43;42.28;;;12.20;;
71790;SDS011;59638;52.126;5.434;2022-11-15T02:07:12;33.28;;;12.30;;
71790;SDS011;59638;52.126;5.434;2022-11-15T02:09:43;42.03;;;13.52;;
71790;SDS011;59638;52.126;5.434;2022-11-15T02:12:11;33.90;;;12.73;;
71790;SDS011;59638;52.126;5.434;2022-11-15T02:14:42;30.10;;;12.48;;
71790;SDS011;59638;52.126;5.434;2022-11-15T02:29:07;33.22;;;13.23;;
71790;SDS011;59638;52.126;5.434;2022-11-15T02:42:56;32.22;;;12.70;;
71790;SDS011;59638;52.126;5.434;2022-11-15T02:45:46;32.13;;;13.10;;
71790;SDS011;59638;52.126;5.434;2022-11-15T02:48:17;36.25;;;12.98;;
71790;SDS011;59638;52.126;5.434;2022-11-15T02:50:45;33.15;;;12.25;;
71790;SDS011;59638;52.126;5.434;2022-11-15T02:53:11;31.97;;;12.60;;
71790;SDS011;59638;52.126;5.434;2022-11-15T02:55:44;32.28;;;13.70;;
71790;SDS011;59638;52.126;5.434;2022-11-15T03:01:01;25.52;;;12.00;;
71790;SDS011;59638;52.126;5.434;2022-11-15T03:06:16;24.50;;;11.87;;
71790;SDS011;59638;52.126;5.434;2022-11-15T03:09:07;29.58;;;12.30;;
71790;SDS011;59638;52.126;5.434;2022-11-15T03:11:36;32.50;;;11.32;;
71790;SDS011;59638;52.126;5.434;2022-11-15T03:17:11;24.05;;;11.00;;
71790;SDS011;59638;52.126;5.434;2022-11-15T03:19:46;19.10;;;10.57;;
71790;SDS011;59638;52.126;5.434;2022-11-15T03:22:19;27.10;;;12.25;;
71790;SDS011;59638;52.126;5.434;2022-11-15T03:24:50;28.05;;;13.70;;
71790;SDS011;59638;52.126;5.434;2022-11-15T03:27:23;29.00;;;12.15;;
71790;SDS011;59638;52.126;5.434;2022-11-15T03:29:55;24.77;;;10.63;;
71790;SDS011;59638;52.126;5.434;2022-11-15T03:32:26;24.03;;;10.63;;
71790;SDS011;59638;52.126;5.434;2022-11-15T03:34:57;20.73;;;11.98;;
71790;SDS011;59638;52.126;5.434;2022-11-15T03:37:30;24.02;;;11.57;;
71790;SDS011;59638;52.126;5.434;2022-11-15T03:40:01;29.02;;;11.82;;
71790;SDS011;59638;52.126;5.434;2022-11-15T03:42:42;24.17;;;10.88;;
71790;SDS011;59638;52.126;5.434;2022-11-15T03:45:19;25.43;;;11.10;;
71790;SDS011;59638;52.126;5.434;2022-11-15T03:47:53;21.30;;;10.73;;
71790;SDS011;59638;52.126;5.434;2022-11-15T03:50:39;21.05;;;11.07;;
71790;SDS011;59638;52.126;5.434;2022-11-15T03:53:07;19.30;;;11.27;;
71790;SDS011;59638;52.126;5.434;2022-11-15T03:55:34;23.00;;;11.23;;
71790;SDS011;59638;52.126;5.434;2022-11-15T03:58:00;23.57;;;11.97;;
71790;SDS011;59638;52.126;5.434;2022-11-15T04:00:28;22.20;;;10.98;;
71790;SDS011;59638;52.126;5.434;2022-11-15T04:02:54;22.38;;;11.88;;
71790;SDS011;59638;52.126;5.434;2022-11-15T04:05:21;21.45;;;11.25;;
71790;SDS011;59638;52.126;5.434;2022-11-15T04:07:47;21.70;;;10.82;;
71790;SDS011;59638;52.126;5.434;2022-11-15T04:10:14;17.93;;;11.33;;
71790;SDS011;59638;52.126;5.434;2022-11-15T04:12:42;21.83;;;12.30;;
71790;SDS011;59638;52.126;5.434;2022-11-15T04:15:10;29.92;;;11.07;;
71790;SDS011;59638;52.126;5.434;2022-11-15T04:17:47;22.35;;;12.70;;
71790;SDS011;59638;52.126;5.434;2022-11-15T04:20:20;20.50;;;11.07;;
71790;SDS011;59638;52.126;5.434;2022-11-15T04:23:10;18.60;;;9.90;;
71790;SDS011;59638;52.126;5.434;2022-11-15T04:26:15;23.02;;;10.63;;
71790;SDS011;59638;52.126;5.434;2022-11-15T04:28:44;27.92;;;10.93;;
71790;SDS011;59638;52.126;5.434;2022-11-15T04:31:28;17.83;;;11.35;;
71790;SDS011;59638;52.126;5.434;2022-11-15T04:33:55;20.45;;;11.90;;
71790;SDS011;59638;52.126;5.434;2022-11-15T04:36:22;23.43;;;11.77;;
71790;SDS011;59638;52.126;5.434;2022-11-15T04:39:06;22.85;;;11.35;;
71790;SDS011;59638;52.126;5.434;2022-11-15T04:41:33;19.05;;;11.77;;
71790;SDS011;59638;52.126;5.434;2022-11-15T04:43:59;23.10;;;11.25;;
71790;SDS011;59638;52.126;5.434;2022-11-15T04:46:26;21.90;;;11.82;;
71790;SDS011;59638;52.126;5.434;2022-11-15T04:48:53;23.93;;;10.83;;
71790;SDS011;59638;52.126;5.434;2022-11-15T04:51:24;20.00;;;10.63;;
71790;SDS011;59638;52.126;5.434;2022-11-15T04:53:51;21.55;;;11.05;;
71790;SDS011;59638;52.126;5.434;2022-11-15T04:56:17;29.35;;;12.48;;
71790;SDS011;59638;52.126;5.434;2022-11-15T04:58:43;21.58;;;11.10;;
71790;SDS011;59638;52.126;5.434;2022-11-15T05:01:13;24.60;;;11.73;;
71790;SDS011;59638;52.126;5.434;2022-11-15T05:03:41;24.90;;;11.70;;
71790;SDS011;59638;52.126;5.434;2022-11-15T05:06:26;20.40;;;10.18;;
71790;SDS011;59638;52.126;5.434;2022-11-15T05:08:53;26.02;;;10.93;;
71790;SDS011;59638;52.126;5.434;2022-11-15T05:11:20;19.45;;;11.27;;
71790;SDS011;59638;52.126;5.434;2022-11-15T05:13:49;23.03;;;11.23;;
71790;SDS011;59638;52.126;5.434;2022-11-15T05:16:16;25.05;;;11.45;;
71790;SDS011;59638;52.126;5.434;2022-11-15T05:18:42;25.70;;;11.27;;
71790;SDS011;59638;52.126;5.434;2022-11-15T05:21:12;20.42;;;10.80;;
71790;SDS011;59638;52.126;5.434;2022-11-15T05:23:41;22.27;;;10.85;;
71790;SDS011;59638;52.126;5.434;2022-11-15T05:26:07;21.60;;;10.20;;
71790;SDS011;59638;52.126;5.434;2022-11-15T05:28:34;23.73;;;11.00;;
71790;SDS011;59638;52.126;5.434;2022-11-15T05:31:02;21.25;;;10.45;;
71790;SDS011;59638;52.126;5.434;2022-11-15T05:33:31;18.13;;;10.07;;
71790;SDS011;59638;52.126;5.434;2022-11-15T05:36:00;15.02;;;9.27;;
71790;SDS011;59638;52.126;5.434;2022-11-15T05:38:30;20.83;;;10.33;;
71790;SDS011;59638;52.126;5.434;2022-11-15T05:40:56;17.88;;;10.13;;
71790;SDS011;59638;52.126;5.434;2022-11-15T05:43:23;22.92;;;10.65;;
71790;SDS011;59638;52.126;5.434;2022-11-15T05:45:50;24.88;;;11.70;;
71790;SDS011;59638;52.126;5.434;2022-11-15T05:48:16;18.55;;;11.15;;
71790;SDS011;59638;52.126;5.434;2022-11-15T05:50:43;19.30;;;10.37;;
71790;SDS011;59638;52.126;5.434;2022-11-15T05:53:14;17.75;;;10.68;;
71790;SDS011;59638;52.126;5.434;2022-11-15T05:55:43;17.98;;;9.38;;
71790;SDS011;59638;52.126;5.434;2022-11-15T05:58:10;19.27;;;10.27;;
71790;SDS011;59638;52.126;5.434;2022-11-15T06:00:36;21.05;;;11.98;;
71790;SDS011;59638;52.126;5.434;2022-11-15T06:03:03;18.10;;;11.20;;
71790;SDS011;59638;52.126;5.434;2022-11-15T06:05:29;14.60;;;8.38;;
71790;SDS011;59638;52.126;5.434;2022-11-15T06:07:59;23.67;;;10.45;;
71790;SDS011;59638;52.126;5.434;2022-11-15T06:10:25;21.85;;;10.75;;
71790;SDS011;59638;52.126;5.434;2022-11-15T06:12:56;15.75;;;10.38;;
71790;SDS011;59638;52.126;5.434;2022-11-15T06:15:23;20.80;;;10.90;;
71790;SDS011;59638;52.126;5.434;2022-11-15T06:17:50;19.27;;;10.88;;
71790;SDS011;59638;52.126;5.434;2022-11-15T06:20:16;23.05;;;11.80;;
71790;SDS011;59638;52.126;5.434;2022-11-15T06:22:43;19.48;;;11.20;;
71790;SDS011;59638;52.126;5.434;2022-11-15T06:25:09;20.88;;;10.85;;
71790;SDS011;59638;52.126;5.434;2022-11-15T06:27:35;16.17;;;10.30;;
71790;SDS011;59638;52.126;5.434;2022-11-15T06:30:02;23.60;;;12.38;;
71790;SDS011;59638;52.126;5.434;2022-11-15T06:32:28;18.08;;;10.63;;
71790;SDS011;59638;52.126;5.434;2022-11-15T06:34:56;21.63;;;10.60;;
71790;SDS011;59638;52.126;5.434;2022-11-15T06:37:22;23.05;;;11.13;;
71790;SDS011;59638;52.126;5.434;2022-11-15T06:39:48;20.20;;;10.57;;
71790;SDS011;59638;52.126;5.434;2022-11-15T06:42:15;24.63;;;10.75;;
71790;SDS011;59638;52.126;5.434;2022-11-15T06:44:41;20.38;;;11.25;;
71790;SDS011;59638;52.126;5.434;2022-11-15T06:47:07;21.27;;;11.68;;
71790;SDS011;59638;52.126;5.434;2022-11-15T06:49:34;21.52;;;10.93;;
71790;SDS011;59638;52.126;5.434;2022-11-15T06:52:00;22.90;;;11.50;;
71790;SDS011;59638;52.126;5.434;2022-11-15T06:54:26;21.98;;;11.52;;
71790;SDS011;59638;52.126;5.434;2022-11-15T06:56:53;24.65;;;10.23;;
71790;SDS011;59638;52.126;5.434;2022-11-15T06:59:19;19.92;;;10.40;;
71790;SDS011;59638;52.126;5.434;2022-11-15T07:01:45;21.30;;;10.88;;
71790;SDS011;59638;52.126;5.434;2022-11-15T07:04:12;19.10;;;12.60;;
71790;SDS011;59638;52.126;5.434;2022-11-15T07:06:38;25.52;;;11.98;;
71790;SDS011;59638;52.126;5.434;2022-11-15T07:09:05;17.42;;;10.88;;
71790;SDS011;59638;52.126;5.434;2022-11-15T07:11:32;23.67;;;10.93;;
71790;SDS011;59638;52.126;5.434;2022-11-15T07:13:59;22.02;;;11.65;;
71790;SDS011;59638;52.126;5.434;2022-11-15T07:16:26;24.07;;;10.77;;
71790;SDS011;59638;52.126;5.434;2022-11-15T07:18:52;24.55;;;10.27;;
71790;SDS011;59638;52.126;5.434;2022-11-15T07:21:19;18.50;;;11.48;;
71790;SDS011;59638;52.126;5.434;2022-11-15T07:23:52;20.42;;;10.07;;
71790;SDS011;59638;52.126;5.434;2022-11-15T07:26:18;21.75;;;11.38;;
71790;SDS011;59638;52.126;5.434;2022-11-15T07:28:45;20.47;;;10.63;;
71790;SDS011;59638;52.126;5.434;2022-11-15T07:31:11;18.50;;;11.55;;
71790;SDS011;59638;52.126;5.434;2022-11-15T07:33:37;18.35;;;10.15;;
71790;SDS011;59638;52.126;5.434;2022-11-15T07:36:04;22.35;;;9.27;;
71790;SDS011;59638;52.126;5.434;2022-11-15T07:38:32;18.52;;;10.23;;
71790;SDS011;59638;52.126;5.434;2022-11-15T07:41:07;24.50;;;11.20;;
71790;SDS011;59638;52.126;5.434;2022-11-15T07:43:33;23.90;;;10.02;;
71790;SDS011;59638;52.126;5.434;2022-11-15T07:46:06;16.20;;;9.63;;
71790;SDS011;59638;52.126;5.434;2022-11-15T07:48:36;18.08;;;9.68;;
71790;SDS011;59638;52.126;5.434;2022-11-15T07:51:11;20.40;;;10.50;;
71790;SDS011;59638;52.126;5.434;2022-11-15T07:53:39;17.50;;;10.00;;
71790;SDS011;59638;52.126;5.434;2022-11-15T07:56:06;30.13;;;10.77;;
71790;SDS011;59638;52.126;5.434;2022-11-15T07:58:33;13.88;;;8.50;;
71790;SDS011;59638;52.126;5.434;2022-11-15T08:01:06;24.17;;;8.63;;
71790;SDS011;59638;52.126;5.434;2022-11-15T08:03:35;23.00;;;9.35;;
71790;SDS011;59638;52.126;5.434;2022-11-15T08:06:02;16.37;;;8.87;;
71790;SDS011;59638;52.126;5.434;2022-11-15T08:08:28;16.25;;;9.40;;
71790;SDS011;59638;52.126;5.434;2022-11-15T08:10:57;16.85;;;9.52;;
71790;SDS011;59638;52.126;5.434;2022-11-15T08:13:24;23.65;;;9.95;;
71790;SDS011;59638;52.126;5.434;2022-11-15T08:15:50;17.08;;;8.52;;
71790;SDS011;59638;52.126;5.434;2022-11-15T08:18:22;17.37;;;9.13;;
71790;SDS011;59638;52.126;5.434;2022-11-15T08:20:49;15.30;;;8.60;;
71790;SDS011;59638;52.126;5.434;2022-11-15T08:23:15;14.93;;;8.40;;
71790;SDS011;59638;52.126;5.434;2022-11-15T08:25:41;19.67;;;8.38;;
71790;SDS011;59638;52.126;5.434;2022-11-15T08:28:09;13.13;;;8.38;;
71790;SDS011;59638;52.126;5.434;2022-11-15T08:30:36;12.30;;;7.80;;
71790;SDS011;59638;52.126;5.434;2022-11-15T08:33:04;18.92;;;9.02;;
71790;SDS011;59638;52.126;5.434;2022-11-15T08:35:31;13.93;;;7.68;;
71790;SDS011;59638;52.126;5.434;2022-11-15T08:37:57;11.35;;;7.55;;
71790;SDS011;59638;52.126;5.434;2022-11-15T08:40:23;12.35;;;7.80;;
71790;SDS011;59638;52.126;5.434;2022-11-15T08:42:50;18.27;;;8.20;;
71790;SDS011;59638;52.126;5.434;2022-11-15T08:45:16;19.90;;;8.90;;
71790;SDS011;59638;52.126;5.434;2022-11-15T08:47:42;13.82;;;8.60;;
71790;SDS011;59638;52.126;5.434;2022-11-15T08:50:11;17.10;;;8.85;;
71790;SDS011;59638;52.126;5.434;2022-11-15T08:52:37;14.98;;;8.23;;
71790;SDS011;59638;52.126;5.434;2022-11-15T08:55:04;16.30;;;9.00;;
71790;SDS011;59638;52.126;5.434;2022-11-15T08:57:31;13.93;;;7.38;;
71790;SDS011;59638;52.126;5.434;2022-11-15T08:59:57;18.77;;;8.68;;
71790;SDS011;59638;52.126;5.434;2022-11-15T09:02:23;10.85;;;7.25;;
71790;SDS011;59638;52.126;5.434;2022-11-15T09:04:50;14.02;;;7.85;;
71790;SDS011;59638;52.126;5.434;2022-11-15T09:07:16;10.40;;;6.67;;
71790;SDS011;59638;52.126;5.434;2022-11-15T09:09:43;13.85;;;7.30;;
71790;SDS011;59638;52.126;5.434;2022-11-15T09:12:10;12.02;;;7.15;;
71790;SDS011;59638;52.126;5.434;2022-11-15T09:14:36;16.20;;;7.78;;
71790;SDS011;59638;52.126;5.434;2022-11-15T09:17:03;13.13;;;7.50;;
71790;SDS011;59638;52.126;5.434;2022-11-15T09:19:30;11.17;;;7.53;;
71790;SDS011;59638;52.126;5.434;2022-11-15T09:21:56;13.52;;;7.25;;
71790;SDS011;59638;52.126;5.434;2022-11-15T09:24:22;12.63;;;6.75;;
71790;SDS011;59638;52.126;5.434;2022-11-15T09:26:49;14.43;;;6.82;;
71790;SDS011;59638;52.126;5.434;2022-11-15T09:29:17;10.88;;;7.47;;
71790;SDS011;59638;52.126;5.434;2022-11-15T09:31:44;14.77;;;7.20;;
71790;SDS011;59638;52.126;5.434;2022-11-15T09:34:11;11.85;;;5.85;;
71790;SDS011;59638;52.126;5.434;2022-11-15T09:36:37;6.30;;;4.55;;
71790;SDS011;59638;52.126;5.434;2022-11-15T09:39:04;13.13;;;5.65;;
71790;SDS011;59638;52.126;5.434;2022-11-15T09:41:34;14.48;;;6.15;;
71790;SDS011;59638;52.126;5.434;2022-11-15T09:49:55;10.93;;;4.35;;
71790;SDS011;59638;52.126;5.434;2022-11-15T09:52:25;6.15;;;4.68;;
71790;SDS011;59638;52.126;5.434;2022-11-15T09:54:51;5.47;;;4.30;;
71790;SDS011;59638;52.126;5.434;2022-11-15T10:00:17;8.00;;;4.20;;
71790;SDS011;59638;52.126;5.434;2022-11-15T10:03:12;7.03;;;3.60;;
71790;SDS011;59638;52.126;5.434;2022-11-15T10:05:42;6.38;;;4.18;;
71790;SDS011;59638;52.126;5.434;2022-11-15T10:08:31;6.57;;;4.50;;
71790;SDS011;59638;52.126;5.434;2022-11-15T10:11:10;4.97;;;4.50;;
71790;SDS011;59638;52.126;5.434;2022-11-15T10:14:01;8.57;;;3.90;;
71790;SDS011;59638;52.126;5.434;2022-11-15T10:16:49;5.80;;;3.60;;
71790;SDS011;59638;52.126;5.434;2022-11-15T10:19:46;4.10;;;3.30;;
71790;SDS011;59638;52.126;5.434;2022-11-15T10:22:40;4.88;;;3.17;;
71790;SDS011;59638;52.126;5.434;2022-11-15T10:25:16;6.10;;;3.40;;
71790;SDS011;59638;52.126;5.434;2022-11-15T10:30:44;5.80;;;2.25;;
71790;SDS011;59638;52.126;5.434;2022-11-15T10:41:18;3.95;;;0.90;;
71790;SDS011;59638;52.126;5.434;2022-11-15T10:44:01;2.00;;;1.38;;
71790;SDS011;59638;52.126;5.434;2022-11-15T10:46:35;4.60;;;1.05;;
71790;SDS011;59638;52.126;5.434;2022-11-15T10:49:20;4.25;;;0.90;;
71790;SDS011;59638;52.126;5.434;2022-11-15T10:51:47;5.80;;;1.30;;
71790;SDS011;59638;52.126;5.434;2022-11-15T10:54:36;2.05;;;0.98;;
71790;SDS011;59638;52.126;5.434;2022-11-15T10:57:16;5.55;;;1.48;;
71790;SDS011;59638;52.126;5.434;2022-11-15T10:59:49;2.58;;;1.00;;
71790;SDS011;59638;52.126;5.434;2022-11-15T11:02:28;1.50;;;0.90;;
71790;SDS011;59638;52.126;5.434;2022-11-15T11:04:55;3.00;;;0.83;;
71790;SDS011;59638;52.126;5.434;2022-11-15T11:07:24;2.20;;;0.73;;
71790;SDS011;59638;52.126;5.434;2022-11-15T11:10:03;2.22;;;0.50;;
71790;SDS011;59638;52.126;5.434;2022-11-15T11:13:21;3.92;;;0.82;;
71790;SDS011;59638;52.126;5.434;2022-11-15T11:15:54;1.38;;;0.40;;
71790;SDS011;59638;52.126;5.434;2022-11-15T11:18:46;1.80;;;0.50;;
71790;SDS011;59638;52.126;5.434;2022-11-15T11:21:14;1.17;;;0.50;;
71790;SDS011;59638;52.126;5.434;2022-11-15T11:23:47;2.08;;;0.40;;
71790;SDS011;59638;52.126;5.434;2022-11-15T11:35:26;2.75;;;0.77;;
71790;SDS011;59638;52.126;5.434;2022-11-15T11:38:21;2.55;;;0.40;;
71790;SDS011;59638;52.126;5.434;2022-11-15T11:49:16;1.40;;;0.50;;
71790;SDS011;59638;52.126;5.434;2022-11-15T11:51:53;1.20;;;0.40;;
71790;SDS011;59638;52.126;5.434;2022-11-15T11:54:34;1.20;;;0.45;;
71790;SDS011;59638;52.126;5.434;2022-11-15T11:58:04;1.35;;;0.40;;
71790;SDS011;59638;52.126;5.434;2022-11-15T12:00:09;2.30;;;0.40;;
71790;SDS011;59638;52.126;5.434;2022-11-15T12:02:43;5.00;;;0.50;;
71790;SDS011;59638;52.126;5.434;2022-11-15T12:05:18;4.30;;;0.35;;
71790;SDS011;59638;52.126;5.434;2022-11-15T12:07:53;1.85;;;0.45;;
71790;SDS011;59638;52.126;5.434;2022-11-15T12:10:29;5.90;;;0.43;;
71790;SDS011;59638;52.126;5.434;2022-11-15T12:13:07;2.97;;;0.20;;
71790;SDS011;59638;52.126;5.434;2022-11-15T12:15:43;3.45;;;0.20;;
71790;SDS011;59638;52.126;5.434;2022-11-15T12:18:15;6.43;;;0.35;;
71790;SDS011;59638;52.126;5.434;2022-11-15T12:20:49;2.03;;;0.32;;
71790;SDS011;59638;52.126;5.434;2022-11-15T12:23:45;1.35;;;0.30;;
71790;SDS011;59638;52.126;5.434;2022-11-15T12:26:17;1.87;;;0.20;;
71790;SDS011;59638;52.126;5.434;2022-11-15T12:28:54;2.03;;;0.30;;
71790;SDS011;59638;52.126;5.434;2022-11-15T12:34:46;3.33;;;0.20;;
71790;SDS011;59638;52.126;5.434;2022-11-15T12:36:47;3.35;;;0.30;;
71790;SDS011;59638;52.126;5.434;2022-11-15T12:39:16;2.93;;;0.20;;
71790;SDS011;59638;52.126;5.434;2022-11-15T12:41:44;3.45;;;0.10;;
71790;SDS011;59638;52.126;5.434;2022-11-15T12:49:42;4.53;;;0.30;;
71790;SDS011;59638;52.126;5.434;2022-11-15T12:52:10;1.20;;;0.20;;
71790;SDS011;59638;52.126;5.434;2022-11-15T13:02:21;1.73;;;0.20;;
71790;SDS011;59638;52.126;5.434;2022-11-15T13:04:50;1.67;;;0.30;;
71790;SDS011;59638;52.126;5.434;2022-11-15T13:20:21;1.55;;;0.20;;
71790;SDS011;59638;52.126;5.434;2022-11-15T13:23:10;3.47;;;0.20;;
71790;SDS011;59638;52.126;5.434;2022-11-15T13:28:21;2.75;;;0.55;;
71790;SDS011;59638;52.126;5.434;2022-11-15T13:30:58;1.93;;;0.47;;
71790;SDS011;59638;52.126;5.434;2022-11-15T13:33:36;4.07;;;0.20;;
71790;SDS011;59638;52.126;5.434;2022-11-15T13:38:55;4.68;;;0.30;;
71790;SDS011;59638;52.126;5.434;2022-11-15T13:41:25;2.75;;;0.20;;
71790;SDS011;59638;52.126;5.434;2022-11-15T13:43:54;1.13;;;0.20;;
71790;SDS011;59638;52.126;5.434;2022-11-15T13:46:25;1.42;;;0.20;;
71790;SDS011;59638;52.126;5.434;2022-11-15T13:51:49;3.03;;;0.30;;
71790;SDS011;59638;52.126;5.434;2022-11-15T13:54:27;1.30;;;0.50;;
71790;SDS011;59638;52.126;5.434;2022-11-15T13:56:58;3.20;;;0.30;;
71790;SDS011;59638;52.126;5.434;2022-11-15T13:59:29;2.55;;;0.32;;
71790;SDS011;59638;52.126;5.434;2022-11-15T14:01:59;2.38;;;0.60;;
71790;SDS011;59638;52.126;5.434;2022-11-15T14:04:28;2.13;;;0.32;;
71790;SDS011;59638;52.126;5.434;2022-11-15T14:06:59;1.63;;;0.30;;
71790;SDS011;59638;52.126;5.434;2022-11-15T14:09:32;1.63;;;0.50;;
71790;SDS011;59638;52.126;5.434;2022-11-15T14:12:21;3.22;;;0.13;;
71790;SDS011;59638;52.126;5.434;2022-11-15T14:14:52;0.68;;;0.20;;
71790;SDS011;59638;52.126;5.434;2022-11-15T14:17:20;2.55;;;0.20;;
71790;SDS011;59638;52.126;5.434;2022-11-15T14:19:56;4.32;;;0.30;;
71790;SDS011;59638;52.126;5.434;2022-11-15T14:22:24;1.90;;;0.73;;
71790;SDS011;59638;52.126;5.434;2022-11-15T14:30:39;2.08;;;0.30;;
71790;SDS011;59638;52.126;5.434;2022-11-15T14:33:40;0.70;;;0.22;;
71790;SDS011;59638;52.126;5.434;2022-11-15T14:36:11;1.37;;;0.30;;
71790;SDS011;59638;52.126;5.434;2022-11-15T14:38:40;1.75;;;0.10;;
71790;SDS011;59638;52.126;5.434;2022-11-15T14:41:19;0.85;;;0.17;;
71790;SDS011;59638;52.126;5.434;2022-11-15T14:43:51;1.05;;;0.20;;
71790;SDS011;59638;52.126;5.434;2022-11-15T14:46:18;3.47;;;0.20;;
71790;SDS011;59638;52.126;5.434;2022-11-15T14:48:45;4.40;;;0.23;;
71790;SDS011;59638;52.126;5.434;2022-11-15T14:51:12;1.67;;;0.20;;
71790;SDS011;59638;52.126;5.434;2022-11-15T14:53:41;2.58;;;0.13;;
71790;SDS011;59638;52.126;5.434;2022-11-15T14:56:08;5.28;;;0.30;;
71790;SDS011;59638;52.126;5.434;2022-11-15T14:58:34;4.50;;;0.13;;
71790;SDS011;59638;52.126;5.434;2022-11-15T15:01:18;1.30;;;0.20;;
71790;SDS011;59638;52.126;5.434;2022-11-15T15:03:47;1.55;;;0.30;;
71790;SDS011;59638;52.126;5.434;2022-11-15T15:06:13;2.25;;;0.30;;
71790;SDS011;59638;52.126;5.434;2022-11-15T15:08:43;0.85;;;0.20;;
71790;SDS011;59638;52.126;5.434;2022-11-15T15:11:18;3.45;;;0.40;;
71790;SDS011;59638;52.126;5.434;2022-11-15T15:13:48;2.00;;;0.30;;
71790;SDS011;59638;52.126;5.434;2022-11-15T15:16:15;0.85;;;0.20;;
71790;SDS011;59638;52.126;5.434;2022-11-15T15:18:41;1.52;;;0.10;;
71790;SDS011;59638;52.126;5.434;2022-11-15T15:21:18;0.30;;;0.10;;
71790;SDS011;59638;52.126;5.434;2022-11-15T15:23:48;3.03;;;0.20;;
71790;SDS011;59638;52.126;5.434;2022-11-15T15:26:15;3.93;;;0.30;;
71790;SDS011;59638;52.126;5.434;2022-11-15T15:28:41;1.17;;;0.13;;
71790;SDS011;59638;52.126;5.434;2022-11-15T15:31:11;3.08;;;0.30;;
71790;SDS011;59638;52.126;5.434;2022-11-15T15:33:37;2.65;;;0.10;;
71790;SDS011;59638;52.126;5.434;2022-11-15T15:36:04;2.97;;;0.75;;
71790;SDS011;59638;52.126;5.434;2022-11-15T15:38:31;4.27;;;0.20;;
71790;SDS011;59638;52.126;5.434;2022-11-15T15:40:57;1.60;;;0.20;;
71790;SDS011;59638;52.126;5.434;2022-11-15T15:43:25;3.58;;;0.10;;
71790;SDS011;59638;52.126;5.434;2022-11-15T15:45:51;2.20;;;0.20;;
71790;SDS011;59638;52.126;5.434;2022-11-15T15:48:18;1.17;;;0.10;;
71790;SDS011;59638;52.126;5.434;2022-11-15T15:50:44;1.80;;;0.10;;
71790;SDS011;59638;52.126;5.434;2022-11-15T15:53:11;1.00;;;0.20;;
71790;SDS011;59638;52.126;5.434;2022-11-15T15:55:39;1.60;;;0.30;;
71790;SDS011;59638;52.126;5.434;2022-11-15T15:58:05;1.92;;;0.20;;
71790;SDS011;59638;52.126;5.434;2022-11-15T16:00:32;2.25;;;0.20;;
71790;SDS011;59638;52.126;5.434;2022-11-15T16:02:59;1.73;;;0.10;;
71790;SDS011;59638;52.126;5.434;2022-11-15T16:05:26;3.75;;;0.20;;
71790;SDS011;59638;52.126;5.434;2022-11-15T16:07:52;0.50;;;0.10;;
71790;SDS011;59638;52.126;5.434;2022-11-15T16:10:21;2.53;;;0.15;;
71790;SDS011;59638;52.126;5.434;2022-11-15T16:12:51;3.20;;;0.20;;
71790;SDS011;59638;52.126;5.434;2022-11-15T16:15:19;1.50;;;0.20;;
71790;SDS011;59638;52.126;5.434;2022-11-15T16:17:48;1.50;;;0.10;;
71790;SDS011;59638;52.126;5.434;2022-11-15T16:23:07;0.82;;;0.20;;
71790;SDS011;59638;52.126;5.434;2022-11-15T16:25:46;1.27;;;0.20;;
71790;SDS011;59638;52.126;5.434;2022-11-15T16:28:18;4.93;;;0.27;;
71790;SDS011;59638;52.126;5.434;2022-11-15T16:30:48;3.33;;;0.15;;
71790;SDS011;59638;52.126;5.434;2022-11-15T16:33:21;2.38;;;0.30;;
71790;SDS011;59638;52.126;5.434;2022-11-15T16:35:48;2.78;;;0.13;;
71790;SDS011;59638;52.126;5.434;2022-11-15T16:38:15;1.33;;;0.13;;
71790;SDS011;59638;52.126;5.434;2022-11-15T16:40:41;1.97;;;0.40;;
71790;SDS011;59638;52.126;5.434;2022-11-15T16:43:08;1.17;;;0.40;;
71790;SDS011;59638;52.126;5.434;2022-11-15T16:45:35;1.58;;;0.20;;
71790;SDS011;59638;52.126;5.434;2022-11-15T16:48:01;0.90;;;0.10;;